Time;durP1;ratioP1;P1;durP2;ratioP2;P2;SDS_P1;SDS_P2;PMS_P1;PMS_P2;Temp;Humidity;BMP_temperature;BMP_pressure;BME280_temperature;BME280_humidity;BME280_pressure;Samples;Min_cycle;Max_cycle;Signal;HPM_P1;HPM_P2
2022/04/11 00:01:15;;;;;;;;;;;20.30;37.00;;;;;;5069196;28;19989;-53
2022/04/11 00:03:42;;;;;;;;;;;20.30;37.00;;;;;;5066216;28;20015;-47
2022/04/11 00:06:08;;;;;;;;;;;20.30;37.00;;;;;;5067111;28;20072;-45
2022/04/11 00:08:35;;;;;;;;;;;20.30;37.00;;;;;;5067393;28;19977;-52
2022/04/11 00:11:02;;;;;;;;;;;20.30;37.00;;;;;;5069483;28;19925;-50
2022/04/11 00:13:29;;;;;;;;;;;20.30;37.00;;;;;;5060095;28;19924;-48
2022/04/11 00:15:57;;;;;;;;;;;20.30;37.00;;;;;;5066813;28;20439;-51
2022/04/11 00:18:24;;;;;;;;;;;20.30;37.00;;;;;;5070345;28;19924;-50
2022/04/11 00:20:50;;;;;;;;;;;20.30;37.00;;;;;;5070350;28;20387;-48
2022/04/11 00:23:18;;;;;;;;;;;20.30;37.00;;;;;;5073082;28;19928;-50
2022/04/11 00:25:44;;;;;;;;;;;20.30;37.60;;;;;;5082143;28;19929;-47
2022/04/11 00:28:11;;;;;;;;;;;20.30;37.00;;;;;;5070820;28;19951;-49
2022/04/11 00:30:38;;;;;;;;;;;20.30;37.00;;;;;;5065184;28;19935;-49
2022/04/11 00:33:06;;;;;;;;;;;20.30;37.00;;;;;;5071123;28;19978;-47
2022/04/11 00:35:33;;;;;;;;;;;20.30;37.00;;;;;;5079293;28;19930;-47
2022/04/11 00:37:59;;;;;;;;;;;20.40;37.10;;;;;;5083342;28;20204;-45
2022/04/11 00:40:26;;;;;;;;;;;20.30;37.00;;;;;;5070216;28;19960;-50
2022/04/11 00:42:53;;;;;;;;;;;20.30;36.90;;;;;;5064786;28;19983;-48
2022/04/11 00:45:19;;;;;;;;;;;20.30;36.90;;;;;;5071693;28;19967;-47
2022/04/11 00:47:46;;;;;;;;;;;20.30;36.90;;;;;;5072540;28;20028;-49
2022/04/11 00:50:15;;;;;;;;;;;20.30;36.90;;;;;;5066367;28;19935;-53
2022/04/11 00:52:43;;;;;;;;;;;20.30;36.90;;;;;;5082680;28;19947;-46
2022/04/11 00:55:10;;;;;;;;;;;20.30;36.90;;;;;;5089693;28;19970;-47
2022/04/11 00:57:37;;;;;;;;;;;20.30;36.90;;;;;;5072463;28;19940;-50
2022/04/11 01:00:04;;;;;;;;;;;20.30;36.90;;;;;;5070779;28;19947;-47
2022/04/11 01:02:31;;;;;;;;;;;20.30;36.90;;;;;;5072878;28;19928;-51
2022/04/11 01:04:58;;;;;;;;;;;20.30;37.00;;;;;;5071026;28;19929;-50
2022/04/11 01:07:26;;;;;;;;;;;20.30;36.90;;;;;;5071599;28;20024;-45
2022/04/11 01:09:53;;;;;;;;;;;20.30;36.90;;;;;;5072691;28;19936;-53
2022/04/11 01:12:20;;;;;;;;;;;20.30;36.90;;;;;;5072318;28;20381;-51
2022/04/11 01:14:46;;;;;;;;;;;20.30;36.90;;;;;;5071343;28;20343;-49
2022/04/11 01:17:13;;;;;;;;;;;20.30;36.90;;;;;;5068580;28;19928;-52
2022/04/11 01:19:40;;;;;;;;;;;20.30;36.90;;;;;;5061387;28;19929;-50
2022/04/11 01:22:08;;;;;;;;;;;20.30;36.90;;;;;;5066550;28;19931;-49
2022/04/11 01:24:36;;;;;;;;;;;20.30;36.80;;;;;;5081175;28;19937;-52
2022/04/11 01:27:02;;;;;;;;;;;20.30;36.90;;;;;;5066472;28;20286;-46
2022/04/11 01:29:29;;;;;;;;;;;20.30;36.80;;;;;;5069109;28;19946;-52
2022/04/11 01:31:56;;;;;;;;;;;20.30;36.90;;;;;;5061389;28;19928;-46
2022/04/11 01:34:23;;;;;;;;;;;20.30;36.80;;;;;;5069527;28;19989;-48
2022/04/11 01:36:50;;;;;;;;;;;20.30;36.80;;;;;;5069367;28;19928;-48
2022/04/11 01:39:18;;;;;;;;;;;20.30;36.80;;;;;;5070205;28;20002;-48
2022/04/11 01:41:44;;;;;;;;;;;20.30;36.80;;;;;;5071339;28;19931;-47
2022/04/11 01:44:11;;;;;;;;;;;20.30;36.80;;;;;;5065724;28;20023;-54
2022/04/11 01:46:38;;;;;;;;;;;20.30;36.80;;;;;;5071723;28;20339;-46
2022/04/11 01:49:05;;;;;;;;;;;20.30;36.80;;;;;;5069857;28;20023;-48
2022/04/11 01:51:32;;;;;;;;;;;20.30;36.80;;;;;;5070096;28;19963;-54
2022/04/11 01:53:58;;;;;;;;;;;20.30;36.70;;;;;;5087860;28;19933;-48
2022/04/11 01:56:27;;;;;;;;;;;20.30;36.70;;;;;;5062547;28;20000;-49
2022/04/11 01:58:54;;;;;;;;;;;20.30;36.70;;;;;;5065627;28;19924;-51
2022/04/11 02:01:21;;;;;;;;;;;20.30;36.70;;;;;;5069463;28;20032;-48
2022/04/11 02:03:47;;;;;;;;;;;20.30;36.70;;;;;;5070470;28;19924;-48
2022/04/11 02:06:14;;;;;;;;;;;20.30;36.70;;;;;;5069800;28;19989;-51
2022/04/11 02:08:41;;;;;;;;;;;20.30;36.70;;;;;;5069031;28;19928;-49
2022/04/11 02:11:08;;;;;;;;;;;20.30;36.70;;;;;;5067384;28;19998;-46
2022/04/11 02:13:36;;;;;;;;;;;20.30;36.70;;;;;;5066407;28;20039;-50
2022/04/11 02:16:02;;;;;;;;;;;20.30;36.70;;;;;;5070209;28;20026;-50
2022/04/11 02:18:29;;;;;;;;;;;20.30;36.70;;;;;;5069107;28;19939;-55
2022/04/11 02:20:56;;;;;;;;;;;20.30;36.70;;;;;;5084077;28;19929;-52
2022/04/11 02:23:22;;;;;;;;;;;20.30;36.70;;;;;;5070439;28;20447;-46
2022/04/11 02:25:49;;;;;;;;;;;20.30;36.70;;;;;;5068956;28;19934;-50
2022/04/11 02:28:16;;;;;;;;;;;20.30;36.70;;;;;;5069424;28;19924;-47
2022/04/11 02:30:44;;;;;;;;;;;20.30;36.70;;;;;;5080431;28;19974;-48
2022/04/11 02:33:11;;;;;;;;;;;20.30;36.70;;;;;;5068664;28;19928;-48
2022/04/11 02:35:37;;;;;;;;;;;20.30;36.70;;;;;;5067797;28;20128;-50
2022/04/11 02:38:04;;;;;;;;;;;20.30;36.70;;;;;;5081142;28;19932;-46
2022/04/11 02:40:31;;;;;;;;;;;20.30;37.30;;;;;;5065797;28;19936;-50
2022/04/11 02:42:58;;;;;;;;;;;20.30;36.70;;;;;;5070234;28;20347;-49
2022/04/11 02:45:24;;;;;;;;;;;20.30;36.70;;;;;;5069889;28;19935;-49
2022/04/11 02:47:53;;;;;;;;;;;20.30;36.60;;;;;;5084306;28;20328;-49
2022/04/11 02:50:19;;;;;;;;;;;20.30;36.60;;;;;;5068034;28;20005;-50
2022/04/11 02:52:46;;;;;;;;;;;20.30;36.60;;;;;;5069705;28;20402;-48
2022/04/11 02:55:13;;;;;;;;;;;20.30;37.20;;;;;;5064775;28;19971;-46
2022/04/11 02:57:40;;;;;;;;;;;20.30;36.60;;;;;;5066974;28;19929;-48
2022/04/11 03:00:08;;;;;;;;;;;20.30;36.60;;;;;;5064176;28;19924;-47
2022/04/11 03:02:34;;;;;;;;;;;20.30;36.60;;;;;;5067473;28;20270;-46
2022/04/11 03:05:02;;;;;;;;;;;20.30;36.60;;;;;;5064794;28;19947;-46
2022/04/11 03:07:29;;;;;;;;;;;20.30;36.60;;;;;;5075875;28;20346;-53
2022/04/11 03:09:56;;;;;;;;;;;20.30;36.60;;;;;;5085788;28;19982;-54
2022/04/11 03:12:22;;;;;;;;;;;20.30;36.50;;;;;;5065968;28;19931;-48
2022/04/11 03:14:49;;;;;;;;;;;20.30;36.60;;;;;;5060831;28;20006;-46
2022/04/11 03:17:16;;;;;;;;;;;20.30;36.50;;;;;;5083092;28;19944;-53
2022/04/11 03:19:43;;;;;;;;;;;20.30;36.60;;;;;;5088103;28;19929;-49
2022/04/11 03:22:11;;;;;;;;;;;20.30;36.50;;;;;;5071360;28;19932;-50
2022/04/11 03:24:38;;;;;;;;;;;20.30;36.50;;;;;;5066629;28;20020;-50
2022/04/11 03:27:05;;;;;;;;;;;20.30;36.60;;;;;;5065441;28;19971;-51
2022/04/11 03:29:32;;;;;;;;;;;20.30;36.60;;;;;;5067396;28;20021;-48
2022/04/11 03:31:59;;;;;;;;;;;20.30;36.50;;;;;;5082039;28;20031;-49
2022/04/11 03:34:25;;;;;;;;;;;20.30;36.50;;;;;;5063011;28;19928;-46
2022/04/11 03:36:52;;;;;;;;;;;20.30;36.50;;;;;;5057133;28;19924;-48
2022/04/11 03:39:20;;;;;;;;;;;20.30;36.50;;;;;;5067937;28;20340;-46
2022/04/11 03:41:47;;;;;;;;;;;20.30;36.50;;;;;;5066411;28;19935;-48
2022/04/11 03:44:13;;;;;;;;;;;20.30;36.50;;;;;;5068918;28;19999;-45
2022/04/11 03:46:40;;;;;;;;;;;20.30;36.50;;;;;;5067520;28;19935;-46
2022/04/11 03:49:07;;;;;;;;;;;20.30;36.50;;;;;;5061332;28;20017;-48
2022/04/11 03:51:34;;;;;;;;;;;20.30;36.40;;;;;;5068533;28;19993;-45
2022/04/11 03:54:01;;;;;;;;;;;20.30;36.50;;;;;;5066645;28;19994;-49
2022/04/11 03:56:30;;;;;;;;;;;20.30;36.40;;;;;;5076747;28;19982;-45
2022/04/11 03:58:56;;;;;;;;;;;20.30;36.50;;;;;;5076567;28;19978;-49
2022/04/11 04:01:23;;;;;;;;;;;20.30;36.40;;;;;;5065129;28;19963;-49
2022/04/11 04:03:50;;;;;;;;;;;20.30;36.40;;;;;;5079529;28;20343;-46
2022/04/11 04:06:16;;;;;;;;;;;20.30;36.40;;;;;;5068388;28;19939;-44
2022/04/11 04:08:43;;;;;;;;;;;20.30;36.40;;;;;;5068342;28;20454;-50
2022/04/11 04:11:11;;;;;;;;;;;20.30;36.40;;;;;;5070121;28;19986;-50
2022/04/11 04:13:39;;;;;;;;;;;20.30;36.30;;;;;;5070215;28;19990;-48
2022/04/11 04:16:06;;;;;;;;;;;20.30;36.40;;;;;;5068564;28;19947;-46
2022/04/11 04:18:33;;;;;;;;;;;20.30;36.40;;;;;;5069833;28;19977;-49
2022/04/11 04:21:00;;;;;;;;;;;20.30;36.40;;;;;;5066231;28;20301;-51
2022/04/11 04:23:27;;;;;;;;;;;20.30;36.30;;;;;;5057641;28;20031;-50
2022/04/11 04:25:54;;;;;;;;;;;20.30;36.30;;;;;;5064852;28;19928;-49
2022/04/11 04:28:20;;;;;;;;;;;20.30;36.30;;;;;;5061307;28;19944;-51
2022/04/11 04:30:48;;;;;;;;;;;20.30;36.30;;;;;;5064665;28;20013;-52
2022/04/11 04:33:15;;;;;;;;;;;20.20;36.20;;;;;;5066114;28;19931;-51
2022/04/11 04:35:42;;;;;;;;;;;20.30;36.30;;;;;;5084135;28;20447;-50
2022/04/11 04:38:09;;;;;;;;;;;20.20;36.20;;;;;;5083519;28;19929;-51
2022/04/11 04:40:36;;;;;;;;;;;20.30;36.30;;;;;;5061465;28;19929;-53
2022/04/11 04:43:04;;;;;;;;;;;20.20;36.30;;;;;;5070659;28;19929;-49
2022/04/11 04:45:31;;;;;;;;;;;20.20;36.20;;;;;;5086704;28;19931;-52
2022/04/11 04:47:59;;;;;;;;;;;20.20;36.20;;;;;;5068956;28;19954;-50
2022/04/11 04:50:26;;;;;;;;;;;20.20;36.20;;;;;;5063538;28;19960;-48
2022/04/11 04:52:53;;;;;;;;;;;20.30;36.50;;;;;;5068765;28;19924;-49
2022/04/11 04:55:19;;;;;;;;;;;20.20;36.20;;;;;;5069136;28;20377;-48
2022/04/11 04:57:46;;;;;;;;;;;20.20;36.20;;;;;;5054819;28;19929;-49
2022/04/11 05:00:13;;;;;;;;;;;20.30;36.20;;;;;;5081747;28;19958;-48
2022/04/11 05:02:40;;;;;;;;;;;20.20;36.20;;;;;;5062076;28;19931;-48
2022/04/11 05:05:08;;;;;;;;;;;20.20;36.10;;;;;;5068413;28;20022;-45
2022/04/11 05:07:35;;;;;;;;;;;20.20;36.20;;;;;;5068640;28;20362;-53
2022/04/11 05:10:02;;;;;;;;;;;20.30;36.20;;;;;;5072235;28;19932;-48
2022/04/11 05:12:29;;;;;;;;;;;20.20;36.10;;;;;;5068609;28;19921;-47
2022/04/11 05:14:56;;;;;;;;;;;20.20;36.10;;;;;;5068631;28;19924;-49
2022/04/11 05:17:22;;;;;;;;;;;20.20;36.10;;;;;;5068062;28;20362;-49
2022/04/11 05:19:50;;;;;;;;;;;20.20;36.10;;;;;;5071345;28;19925;-52
2022/04/11 05:22:18;;;;;;;;;;;20.30;36.10;;;;;;5069635;28;19954;-48
2022/04/11 05:24:44;;;;;;;;;;;20.20;36.10;;;;;;5084508;28;20373;-47
2022/04/11 05:27:11;;;;;;;;;;;20.20;36.10;;;;;;5070317;28;19928;-49
2022/04/11 05:29:38;;;;;;;;;;;20.20;36.10;;;;;;5071044;28;19931;-51
2022/04/11 05:32:05;;;;;;;;;;;20.20;36.10;;;;;;5072705;28;20015;-47
2022/04/11 05:34:32;;;;;;;;;;;20.20;36.10;;;;;;5069463;28;19928;-50
2022/04/11 05:36:58;;;;;;;;;;;20.20;36.10;;;;;;5072060;28;19924;-47
2022/04/11 05:39:27;;;;;;;;;;;20.20;36.10;;;;;;5064294;28;20057;-51
2022/04/11 05:41:54;;;;;;;;;;;20.30;36.20;;;;;;5066789;28;19928;-48
2022/04/11 05:44:21;;;;;;;;;;;20.20;36.00;;;;;;5071289;28;20019;-47
2022/04/11 05:46:52;;;;;;;;;;;20.20;36.10;;;;;;5072392;28;19987;-49
2022/04/11 05:49:19;;;;;;;;;;;20.20;36.10;;;;;;5069185;28;19930;-51
2022/04/11 05:51:46;;;;;;;;;;;20.30;36.10;;;;;;5068710;28;19924;-51
2022/04/11 05:54:13;;;;;;;;;;;20.20;36.00;;;;;;5082970;28;20373;-48
2022/04/11 05:56:41;;;;;;;;;;;20.20;36.00;;;;;;5070482;28;19931;-48
2022/04/11 05:59:08;;;;;;;;;;;20.20;36.30;;;;;;5070937;28;19925;-50
2022/04/11 06:01:35;;;;;;;;;;;20.30;36.10;;;;;;5069042;28;19924;-48
2022/04/11 06:04:01;;;;;;;;;;;20.20;36.10;;;;;;5070235;28;19997;-47
2022/04/11 06:06:28;;;;;;;;;;;20.30;36.10;;;;;;5070939;28;20011;-53
2022/04/11 06:08:55;;;;;;;;;;;20.20;36.00;;;;;;5070011;28;19974;-50
2022/04/11 06:11:22;;;;;;;;;;;20.30;36.10;;;;;;5087495;28;20023;-47
2022/04/11 06:13:50;;;;;;;;;;;20.30;36.10;;;;;;5070799;28;19924;-53
2022/04/11 06:16:16;;;;;;;;;;;20.20;36.00;;;;;;5068260;28;19924;-50
2022/04/11 06:18:43;;;;;;;;;;;20.30;36.10;;;;;;5070973;28;19928;-47
2022/04/11 06:21:10;;;;;;;;;;;20.30;36.10;;;;;;5071912;28;19924;-47
2022/04/11 06:23:37;;;;;;;;;;;20.30;36.10;;;;;;5080528;28;19979;-48
2022/04/11 06:26:03;;;;;;;;;;;20.30;36.10;;;;;;5069145;28;19978;-49
2022/04/11 06:28:30;;;;;;;;;;;20.20;36.00;;;;;;5064767;28;19935;-46
2022/04/11 06:30:58;;;;;;;;;;;20.30;36.10;;;;;;5070087;28;19924;-48
2022/04/11 06:33:25;;;;;;;;;;;20.30;36.10;;;;;;5070224;28;20359;-53
2022/04/11 06:35:52;;;;;;;;;;;20.30;36.10;;;;;;5057962;28;20420;-50
2022/04/11 06:38:18;;;;;;;;;;;20.30;36.10;;;;;;5070357;28;20457;-48
2022/04/11 06:40:49;;;;;;;;;;;20.30;36.10;;;;;;5086880;28;19982;-50
2022/04/11 06:43:16;;;;;;;;;;;20.30;36.10;;;;;;5064559;28;19960;-48
2022/04/11 06:45:48;;;;;;;;;;;20.30;36.10;;;;;;5069576;28;19935;-47
2022/04/11 06:48:16;;;;;;;;;;;20.30;36.10;;;;;;5067358;28;19974;-49
2022/04/11 06:50:43;;;;;;;;;;;20.30;36.10;;;;;;5085246;28;20401;-52
2022/04/11 06:53:10;;;;;;;;;;;20.30;36.10;;;;;;5079135;28;19978;-48
2022/04/11 06:55:38;;;;;;;;;;;20.30;36.20;;;;;;5063509;28;19978;-51
2022/04/11 06:58:04;;;;;;;;;;;20.30;36.10;;;;;;5068361;28;19924;-50
2022/04/11 07:00:31;;;;;;;;;;;20.30;36.20;;;;;;5074771;28;20019;-54
2022/04/11 07:02:58;;;;;;;;;;;20.30;36.10;;;;;;5059895;28;20023;-52
2022/04/11 07:05:26;;;;;;;;;;;20.30;35.60;;;;;;5075943;28;20034;-47
2022/04/11 07:07:53;;;;;;;;;;;20.30;34.90;;;;;;5057161;28;19932;-48
2022/04/11 07:10:20;;;;;;;;;;;20.20;34.50;;;;;;5062868;28;19925;-54
2022/04/11 07:12:46;;;;;;;;;;;20.20;34.40;;;;;;5071605;28;19967;-52
2022/04/11 07:15:13;;;;;;;;;;;20.20;34.30;;;;;;5054755;28;20184;-52
2022/04/11 07:17:40;;;;;;;;;;;20.20;34.00;;;;;;5054516;28;20047;-55
2022/04/11 07:20:08;;;;;;;;;;;20.20;34.10;;;;;;5051301;28;19932;-54
2022/04/11 07:22:36;;;;;;;;;;;20.20;34.20;;;;;;5061482;28;19932;-55
2022/04/11 07:25:03;;;;;;;;;;;20.10;34.10;;;;;;5051390;28;20387;-53
2022/04/11 07:27:30;;;;;;;;;;;20.10;34.10;;;;;;5055994;28;20363;-49
2022/04/11 07:29:57;;;;;;;;;;;20.10;34.00;;;;;;5072053;28;19928;-52
2022/04/11 07:32:24;;;;;;;;;;;20.10;34.10;;;;;;5062534;28;19967;-53
2022/04/11 07:34:51;;;;;;;;;;;20.10;34.10;;;;;;5058054;28;19954;-54
2022/04/11 07:37:18;;;;;;;;;;;20.10;34.00;;;;;;5058778;28;19928;-48
2022/04/11 07:39:47;;;;;;;;;;;20.10;34.10;;;;;;5079137;28;20262;-54
2022/04/11 07:42:13;;;;;;;;;;;20.10;34.60;;;;;;5057661;28;19964;-51
2022/04/11 07:44:40;;;;;;;;;;;20.10;33.90;;;;;;5064186;28;20341;-50
2022/04/11 07:47:08;;;;;;;;;;;20.10;34.00;;;;;;5062876;28;20435;-55
2022/04/11 07:49:35;;;;;;;;;;;20.10;33.80;;;;;;5052818;28;19935;-52
2022/04/11 07:52:02;;;;;;;;;;;20.10;33.70;;;;;;5051310;28;19942;-55
2022/04/11 07:54:29;;;;;;;;;;;20.10;33.70;;;;;;5064447;28;19940;-50
2022/04/11 07:56:57;;;;;;;;;;;20.10;33.80;;;;;;5053268;28;19929;-54
2022/04/11 07:59:23;;;;;;;;;;;20.10;33.80;;;;;;5049222;28;19932;-56
2022/04/11 08:01:51;;;;;;;;;;;20.10;33.70;;;;;;5049712;28;20028;-53
2022/04/11 08:04:18;;;;;;;;;;;20.10;33.80;;;;;;5060927;28;20066;-55
2022/04/11 08:06:45;;;;;;;;;;;20.10;33.80;;;;;;5060646;28;19933;-53
2022/04/11 08:09:12;;;;;;;;;;;20.10;33.80;;;;;;5057769;28;19967;-54
2022/04/11 08:11:39;;;;;;;;;;;20.10;33.70;;;;;;5048487;28;19932;-55
2022/04/11 08:14:07;;;;;;;;;;;20.10;33.70;;;;;;5064140;28;19940;-54
2022/04/11 08:16:34;;;;;;;;;;;20.00;33.50;;;;;;5062264;28;19929;-53
2022/04/11 08:19:00;;;;;;;;;;;20.00;33.50;;;;;;5062224;28;19984;-53
2022/04/11 08:21:27;;;;;;;;;;;20.00;33.60;;;;;;5056868;28;19935;-52
2022/04/11 08:23:54;;;;;;;;;;;20.00;33.70;;;;;;5060509;28;20038;-55
2022/04/11 08:26:20;;;;;;;;;;;20.00;33.60;;;;;;5062213;28;19928;-54
2022/04/11 08:28:47;;;;;;;;;;;20.00;33.70;;;;;;5056377;28;20378;-54
2022/04/11 08:31:16;;;;;;;;;;;20.00;33.70;;;;;;5078330;28;19929;-56
2022/04/11 08:33:42;;;;;;;;;;;20.00;33.70;;;;;;5059489;28;20227;-50
2022/04/11 08:36:09;;;;;;;;;;;20.00;33.80;;;;;;5040052;28;19928;-52
2022/04/11 08:38:36;;;;;;;;;;;20.00;33.70;;;;;;5075756;28;19936;-55
2022/04/11 08:41:03;;;;;;;;;;;20.00;33.80;;;;;;5071702;28;20712;-54
2022/04/11 08:43:29;;;;;;;;;;;20.00;33.80;;;;;;5057631;28;20248;-50
2022/04/11 08:45:56;;;;;;;;;;;20.00;33.90;;;;;;5059480;28;19934;-54
2022/04/11 08:48:24;;;;;;;;;;;20.00;33.90;;;;;;5060304;28;20457;-52
2022/04/11 08:50:51;;;;;;;;;;;20.00;33.90;;;;;;5061889;28;19936;-50
2022/04/11 08:53:20;;;;;;;;;;;20.00;33.70;;;;;;5059349;28;19943;-51
2022/04/11 08:55:47;;;;;;;;;;;20.00;33.60;;;;;;5061053;28;19997;-54
2022/04/11 08:58:13;;;;;;;;;;;20.00;33.50;;;;;;5067003;28;20008;-53
2022/04/11 09:00:40;;;;;;;;;;;20.00;33.40;;;;;;5059462;28;19929;-50
2022/04/11 09:03:10;;;;;;;;;;;20.00;33.30;;;;;;5062333;28;19935;-56
2022/04/11 09:05:38;;;;;;;;;;;20.00;33.20;;;;;;5060785;28;19933;-52
2022/04/11 09:08:05;;;;;;;;;;;20.00;33.20;;;;;;5082403;28;20020;-52
2022/04/11 09:10:32;;;;;;;;;;;19.90;33.10;;;;;;5063936;28;19933;-55
2022/04/11 09:12:59;;;;;;;;;;;19.90;33.00;;;;;;5058890;28;19938;-54
2022/04/11 09:15:26;;;;;;;;;;;19.90;33.00;;;;;;5079652;28;20039;-56
2022/04/11 09:17:53;;;;;;;;;;;19.90;33.10;;;;;;5063394;28;19964;-56
2022/04/11 09:20:21;;;;;;;;;;;19.90;33.10;;;;;;5067368;28;19929;-55
2022/04/11 09:22:49;;;;;;;;;;;19.90;32.90;;;;;;5074884;28;19929;-57
2022/04/11 09:25:16;;;;;;;;;;;19.90;32.70;;;;;;5058507;28;20018;-54
2022/04/11 09:27:43;;;;;;;;;;;19.90;32.60;;;;;;5064478;28;19971;-55
2022/04/11 09:30:21;;;;;;;;;;;19.90;32.50;;;;;;5071049;28;20023;-55
2022/04/11 09:32:52;;;;;;;;;;;19.80;32.40;;;;;;5079801;28;19928;-55
2022/04/11 09:35:22;;;;;;;;;;;19.80;32.50;;;;;;5063236;28;19954;-55
2022/04/11 09:37:51;;;;;;;;;;;19.80;32.50;;;;;;5063464;28;19936;-54
2022/04/11 09:40:21;;;;;;;;;;;19.80;32.50;;;;;;5065587;28;19974;-54
2022/04/11 09:42:48;;;;;;;;;;;19.80;32.40;;;;;;5062822;28;20702;-53
2022/04/11 09:45:17;;;;;;;;;;;19.80;32.50;;;;;;5062651;28;19925;-52
2022/04/11 09:47:48;;;;;;;;;;;19.80;32.50;;;;;;5061636;28;19940;-51
2022/04/11 09:50:14;;;;;;;;;;;19.80;32.40;;;;;;5052047;28;20020;-54
2022/04/11 09:52:41;;;;;;;;;;;19.80;32.50;;;;;;5067847;28;20404;-55
2022/04/11 09:55:10;;;;;;;;;;;19.80;32.50;;;;;;5065000;28;19928;-56
2022/04/11 09:57:36;;;;;;;;;;;19.80;32.30;;;;;;5058267;28;20287;-55
2022/04/11 10:00:04;;;;;;;;;;;19.80;32.30;;;;;;5056640;28;20077;-55
2022/04/11 10:02:31;;;;;;;;;;;19.80;32.40;;;;;;5068215;28;20040;-50
2022/04/11 10:04:58;;;;;;;;;;;19.80;32.00;;;;;;5058493;28;19971;-53
2022/04/11 10:07:25;;;;;;;;;;;19.80;31.80;;;;;;5062033;28;19936;-55
2022/04/11 10:09:51;;;;;;;;;;;19.80;31.10;;;;;;5052325;28;19929;-48
2022/04/11 10:12:20;;;;;;;;;;;19.70;29.70;;;;;;5059579;28;20021;-49
2022/04/11 10:14:46;;;;;;;;;;;19.70;28.80;;;;;;5062060;28;19939;-47
2022/04/11 10:17:14;;;;;;;;;;;19.60;28.30;;;;;;5068777;28;19991;-49
2022/04/11 10:19:42;;;;;;;;;;;19.60;28.20;;;;;;5074170;28;19947;-47
2022/04/11 10:22:13;;;;;;;;;;;19.50;28.10;;;;;;5057342;28;19936;-50
2022/04/11 10:24:41;;;;;;;;;;;19.40;28.10;;;;;;5061619;28;20331;-51
2022/04/11 10:27:15;;;;;;;;;;;19.30;28.20;;;;;;5076726;28;19928;-49
2022/04/11 10:29:43;;;;;;;;;;;19.30;28.30;;;;;;5066252;28;19955;-48
2022/04/11 10:32:10;;;;;;;;;;;19.20;28.40;;;;;;5068763;28;19928;-48
2022/04/11 10:34:47;;;;;;;;;;;19.20;28.70;;;;;;5069689;28;19963;-50
2022/04/11 10:37:13;;;;;;;;;;;19.20;28.80;;;;;;5050986;28;20033;-48
2022/04/11 10:39:43;;;;;;;;;;;19.20;28.90;;;;;;5083989;28;20054;-50
2022/04/11 10:42:17;;;;;;;;;;;19.20;29.10;;;;;;5062614;28;19948;-50
2022/04/11 10:44:46;;;;;;;;;;;19.20;29.20;;;;;;5059888;28;19939;-51
2022/04/11 10:47:24;;;;;;;;;;;19.20;29.30;;;;;;5062840;28;20015;-51
2022/04/11 10:50:09;;;;;;;;;;;19.20;29.20;;;;;;5069118;28;19920;-50
2022/04/11 10:52:36;;;;;;;;;;;19.20;29.50;;;;;;5069783;28;20357;-49
2022/04/11 10:55:04;;;;;;;;;;;19.20;29.60;;;;;;5076175;28;20019;-52
2022/04/11 10:57:32;;;;;;;;;;;19.30;29.60;;;;;;5064063;28;19951;-57
2022/04/11 11:00:05;;;;;;;;;;;19.30;29.40;;;;;;5067468;28;19920;-51
2022/04/11 11:02:47;;;;;;;;;;;19.30;29.30;;;;;;5081777;28;19986;-49
2022/04/11 11:05:24;;;;;;;;;;;19.20;29.30;;;;;;5066899;28;19928;-49
2022/04/11 11:07:51;;;;;;;;;;;19.20;29.40;;;;;;5061769;28;19924;-52
2022/04/11 11:10:27;;;;;;;;;;;19.20;29.60;;;;;;5048901;28;20023;-53
2022/04/11 11:12:59;;;;;;;;;;;19.20;29.70;;;;;;5060267;28;19920;-49
2022/04/11 11:15:28;;;;;;;;;;;19.20;29.90;;;;;;5052783;28;19928;-52
2022/04/11 11:17:55;;;;;;;;;;;19.20;30.00;;;;;;5068146;28;19925;-49
2022/04/11 11:20:23;;;;;;;;;;;19.30;30.00;;;;;;5048438;28;19970;-55
2022/04/11 11:23:10;;;;;;;;;;;19.30;30.00;;;;;;5082851;28;20376;-52
2022/04/11 11:25:37;;;;;;;;;;;19.20;29.90;;;;;;5060945;28;19926;-51
2022/04/11 11:28:04;;;;;;;;;;;19.30;29.90;;;;;;5064772;28;20221;-53
2022/04/11 11:30:32;;;;;;;;;;;19.30;30.00;;;;;;5066707;28;19920;-53
2022/04/11 11:33:01;;;;;;;;;;;19.30;30.00;;;;;;5066243;28;19943;-51
2022/04/11 11:35:30;;;;;;;;;;;19.30;29.90;;;;;;5080399;28;20245;-51
2022/04/11 11:37:56;;;;;;;;;;;19.30;29.90;;;;;;5066891;28;19982;-50
2022/04/11 11:40:23;;;;;;;;;;;19.30;30.00;;;;;;5068807;28;19928;-50
2022/04/11 11:42:50;;;;;;;;;;;19.30;30.00;;;;;;5066257;28;19920;-52
2022/04/11 11:45:17;;;;;;;;;;;19.30;30.10;;;;;;5066843;28;19981;-49
2022/04/11 11:47:45;;;;;;;;;;;19.30;30.30;;;;;;5079070;28;20373;-52
2022/04/11 11:50:12;;;;;;;;;;;19.30;30.40;;;;;;5065837;28;19995;-49
2022/04/11 11:52:40;;;;;;;;;;;19.30;30.30;;;;;;5061643;28;19920;-54
2022/04/11 11:55:07;;;;;;;;;;;19.40;30.50;;;;;;5081317;28;19932;-49
2022/04/11 11:57:35;;;;;;;;;;;19.40;30.40;;;;;;5080384;28;20553;-53
2022/04/11 12:00:03;;;;;;;;;;;19.40;30.40;;;;;;5065357;28;19924;-51
2022/04/11 12:05:20;;;;;;;;;;;19.40;30.50;;;;;;5068432;28;19920;-57
2022/04/11 12:07:47;;;;;;;;;;;19.40;30.50;;;;;;5064829;28;20256;-53
2022/04/11 12:10:14;;;;;;;;;;;19.40;30.50;;;;;;5064104;28;19959;-51
2022/04/11 12:12:41;;;;;;;;;;;19.40;30.40;;;;;;5075747;28;19944;-54
2022/04/11 12:15:08;;;;;;;;;;;19.40;30.40;;;;;;5056551;28;19921;-52
2022/04/11 12:17:35;;;;;;;;;;;19.40;30.40;;;;;;5088990;28;20018;-53
2022/04/11 12:20:08;;;;;;;;;;;19.40;30.40;;;;;;5079627;28;20241;-51
2022/04/11 12:22:37;;;;;;;;;;;19.40;30.30;;;;;;5079312;28;20054;-54
2022/04/11 12:25:22;;;;;;;;;;;19.40;30.30;;;;;;5075054;28;19920;-48
2022/04/11 12:27:50;;;;;;;;;;;19.40;30.20;;;;;;5074859;28;20237;-47
2022/04/11 12:30:16;;;;;;;;;;;19.40;30.40;;;;;;5071056;28;19927;-50
2022/04/11 12:32:43;;;;;;;;;;;19.40;30.60;;;;;;5075937;28;20260;-47
2022/04/11 12:35:14;;;;;;;;;;;19.40;30.80;;;;;;5087654;28;20003;-47
2022/04/11 12:37:48;;;;;;;;;;;19.50;30.90;;;;;;5089222;28;19947;-52
2022/04/11 12:40:15;;;;;;;;;;;19.50;31.10;;;;;;5076196;28;19921;-48
2022/04/11 12:42:42;;;;;;;;;;;19.50;31.20;;;;;;5073537;28;20003;-49
2022/04/11 12:45:09;;;;;;;;;;;19.60;31.30;;;;;;5076720;28;20015;-48
2022/04/11 12:47:50;;;;;;;;;;;19.60;31.50;;;;;;5090644;28;20011;-49
2022/04/11 12:50:21;;;;;;;;;;;19.60;31.50;;;;;;5075615;28;19939;-49
2022/04/11 12:52:49;;;;;;;;;;;19.60;31.60;;;;;;5077487;28;19935;-47
2022/04/11 12:55:16;;;;;;;;;;;19.60;31.60;;;;;;5071054;28;19994;-48
2022/04/11 12:57:42;;;;;;;;;;;19.70;31.80;;;;;;5066772;28;19952;-48
2022/04/11 13:00:13;;;;;;;;;;;19.70;31.80;;;;;;5075599;28;20016;-46
2022/04/11 13:02:40;;;;;;;;;;;19.70;31.90;;;;;;5073022;28;20003;-46
2022/04/11 13:05:12;;;;;;;;;;;19.80;32.00;;;;;;5076648;28;19924;-45
2022/04/11 13:07:39;;;;;;;;;;;19.80;32.10;;;;;;5075314;28;19921;-46
2022/04/11 13:10:09;;;;;;;;;;;19.80;32.10;;;;;;5076291;28;19925;-49
2022/04/11 13:12:35;;;;;;;;;;;19.80;32.20;;;;;;5053639;28;20346;-51
2022/04/11 13:15:02;;;;;;;;;;;19.90;32.30;;;;;;5073350;28;20386;-47
2022/04/11 13:20:15;;;;;;;;;;;19.90;32.40;;;;;;5067877;28;19921;-48
2022/04/11 13:22:42;;;;;;;;;;;19.90;32.50;;;;;;5092117;28;19970;-48
2022/04/11 13:25:10;;;;;;;;;;;19.90;32.50;;;;;;5076605;28;19927;-48
2022/04/11 13:27:37;;;;;;;;;;;20.00;32.70;;;;;;5090236;28;19921;-47
2022/04/11 13:30:04;;;;;;;;;;;20.00;32.70;;;;;;5091403;28;19927;-47
2022/04/11 13:32:30;;;;;;;;;;;20.00;32.80;;;;;;5071243;28;19959;-47
2022/04/11 13:34:57;;;;;;;;;;;20.00;32.90;;;;;;5073691;28;19924;-48
2022/04/11 13:37:24;;;;;;;;;;;20.00;32.90;;;;;;5066323;28;20281;-48
2022/04/11 13:39:51;;;;;;;;;;;20.00;33.50;;;;;;5050993;28;19920;-50
2022/04/11 13:42:19;;;;;;;;;;;20.00;32.90;;;;;;5075298;28;19959;-47
2022/04/11 13:44:45;;;;;;;;;;;20.10;33.10;;;;;;5072661;28;19962;-46
2022/04/11 13:47:12;;;;;;;;;;;20.10;33.10;;;;;;5074040;28;20307;-47
2022/04/11 13:49:40;;;;;;;;;;;20.10;33.20;;;;;;5069927;28;20011;-48
2022/04/11 13:52:08;;;;;;;;;;;20.10;33.20;;;;;;5076776;28;20307;-50
2022/04/11 13:54:35;;;;;;;;;;;20.10;33.20;;;;;;5069377;28;19956;-47
2022/04/11 13:57:01;;;;;;;;;;;20.20;33.30;;;;;;5062835;28;19986;-50
2022/04/11 13:59:29;;;;;;;;;;;20.10;33.20;;;;;;5067203;28;19920;-48
2022/04/11 14:01:57;;;;;;;;;;;20.20;33.40;;;;;;5086687;28;19924;-52
2022/04/11 14:04:24;;;;;;;;;;;20.20;33.40;;;;;;5065570;28;19921;-50
2022/04/11 14:06:50;;;;;;;;;;;20.20;33.40;;;;;;5054936;28;19927;-49
2022/04/11 14:09:17;;;;;;;;;;;20.20;33.50;;;;;;5058318;28;20393;-47
2022/04/11 14:11:44;;;;;;;;;;;20.20;33.50;;;;;;5090625;28;19927;-47
2022/04/11 14:14:11;;;;;;;;;;;20.20;33.50;;;;;;5073026;28;19966;-49
2022/04/11 14:16:39;;;;;;;;;;;20.20;33.60;;;;;;5067178;28;19920;-47
2022/04/11 14:19:06;;;;;;;;;;;20.20;33.60;;;;;;5060184;28;20015;-47
2022/04/11 14:21:33;;;;;;;;;;;20.20;33.60;;;;;;5084543;28;19921;-50
2022/04/11 14:24:00;;;;;;;;;;;20.20;33.60;;;;;;5078038;28;19931;-51